Time;durP1;ratioP1;P1;durP2;ratioP2;P2;SDS_P1;SDS_P2;PMS_P1;PMS_P2;Temp;Humidity;BMP_temperature;BMP_pressure;BME280_temperature;BME280_humidity;BME280_pressure;Samples;Min_cycle;Max_cycle;Signal;HPM_P1;HPM_P2
2023/04/04 00:01:34;;;;;;;5.13;1.27;;;-0.80;99.40;;;;;;5079025;28;20056;-58
2023/04/04 00:04:00;;;;;;;2.20;0.75;;;-0.80;98.70;;;;;;5066134;28;20044;-58
2023/04/04 00:06:26;;;;;;;2.88;1.13;;;-0.80;98.60;;;;;;5072986;28;20029;-58
2023/04/04 00:08:52;;;;;;;3.33;0.93;;;-0.90;97.90;;;;;;5067377;28;20450;-58
2023/04/04 00:11:17;;;;;;;5.38;0.98;;;-0.90;97.10;;;;;;5069190;28;20028;-58
2023/04/04 00:13:44;;;;;;;2.15;0.75;;;-0.90;96.70;;;;;;5072611;28;20114;-57
2023/04/04 00:16:10;;;;;;;2.20;0.80;;;-1.00;96.80;;;;;;5069062;28;20082;-58
2023/04/04 00:18:36;;;;;;;1.00;0.65;;;-1.00;96.10;;;;;;5077081;28;20439;-58
2023/04/04 00:21:01;;;;;;;1.92;0.70;;;-1.10;95.30;;;;;;5072109;28;20075;-58
2023/04/04 00:23:27;;;;;;;3.70;0.80;;;-1.20;95.10;;;;;;5076690;28;20203;-58
2023/04/04 00:25:53;;;;;;;3.03;0.93;;;-1.20;95.60;;;;;;5072407;28;20026;-58
2023/04/04 00:28:19;;;;;;;3.28;0.82;;;-1.30;94.90;;;;;;5071739;28;20109;-58
2023/04/04 00:30:45;;;;;;;2.53;0.90;;;-1.30;95.00;;;;;;5070078;28;20021;-59
2023/04/04 00:33:14;;;;;;;2.47;1.13;;;-1.40;94.50;;;;;;5073670;28;20045;-58
2023/04/04 00:35:40;;;;;;;4.18;1.20;;;-1.40;95.00;;;;;;5070864;28;20241;-58
2023/04/04 00:38:06;;;;;;;3.38;1.35;;;-1.50;94.70;;;;;;5078354;28;20028;-58
2023/04/04 00:40:43;;;;;;;1.27;0.60;;;-1.50;94.50;;;;;;5074220;28;20036;-58
2023/04/04 00:43:08;;;;;;;5.78;1.10;;;-1.60;95.10;;;;;;5067361;28;20105;-56
2023/04/04 00:45:34;;;;;;;2.97;1.00;;;-1.60;95.30;;;;;;5069104;28;20132;-58
2023/04/04 00:48:02;;;;;;;5.45;1.42;;;-1.60;95.10;;;;;;5074855;28;20463;-58
2023/04/04 00:50:27;;;;;;;2.88;0.90;;;-1.70;95.60;;;;;;5077504;28;20089;-58
2023/04/04 00:52:53;;;;;;;2.00;0.63;;;-1.70;95.90;;;;;;5072398;28;20048;-59
2023/04/04 00:55:18;;;;;;;2.78;0.88;;;-1.70;96.00;;;;;;5068436;28;20036;-57
2023/04/04 00:57:44;;;;;;;4.00;0.80;;;-1.80;96.40;;;;;;5072019;28;20127;-59
2023/04/04 01:00:12;;;;;;;2.13;0.95;;;-1.80;96.30;;;;;;5071437;28;20037;-58
2023/04/04 01:02:38;;;;;;;2.05;0.90;;;-1.80;96.30;;;;;;5082759;28;20032;-58
2023/04/04 01:05:05;;;;;;;3.55;0.93;;;-1.90;95.80;;;;;;5071343;28;20435;-57
2023/04/04 01:07:30;;;;;;;2.15;0.93;;;-1.90;95.70;;;;;;5054167;28;20036;-58
2023/04/04 01:09:59;;;;;;;3.28;1.20;;;-1.90;95.80;;;;;;5070088;28;20032;-59
2023/04/04 01:12:25;;;;;;;4.78;0.90;;;-2.00;95.90;;;;;;5074490;28;20032;-57
2023/04/04 01:14:51;;;;;;;4.82;1.08;;;-2.00;96.20;;;;;;5070069;28;20028;-58
2023/04/04 01:17:17;;;;;;;2.55;0.90;;;-2.10;95.60;;;;;;5072316;28;20036;-58
2023/04/04 01:20:06;;;;;;;1.58;0.65;;;-2.10;96.00;;;;;;5070391;28;20028;-58
2023/04/04 01:22:32;;;;;;;2.17;1.00;;;-2.10;96.50;;;;;;5061606;28;20032;-59
2023/04/04 01:25:00;;;;;;;1.85;0.80;;;-2.20;96.70;;;;;;5066207;28;20039;-57
2023/04/04 01:27:26;;;;;;;2.30;0.90;;;-2.20;96.30;;;;;;5073994;28;20036;-56
2023/04/04 01:29:52;;;;;;;1.30;0.80;;;-2.20;96.50;;;;;;5069208;28;20113;-59
2023/04/04 01:32:20;;;;;;;3.08;1.00;;;-2.20;96.80;;;;;;5069491;28;20119;-59
2023/04/04 01:35:00;;;;;;;7.20;0.90;;;-2.30;96.50;;;;;;5066506;28;20027;-58
2023/04/04 01:37:37;;;;;;;1.90;1.00;;;-2.30;96.40;;;;;;5062866;28;20115;-59
2023/04/04 01:40:18;;;;;;;1.80;0.80;;;-2.30;97.10;;;;;;5056920;28;20395;-58
2023/04/04 01:42:44;;;;;;;5.32;1.08;;;-2.40;96.50;;;;;;5070289;28;20166;-58
2023/04/04 01:45:09;;;;;;;3.35;0.82;;;-2.40;96.50;;;;;;5066277;28;20513;-59
2023/04/04 01:47:39;;;;;;;4.43;0.98;;;-2.40;96.90;;;;;;5068613;28;20110;-59
2023/04/04 01:50:09;;;;;;;3.65;1.00;;;-2.50;96.50;;;;;;5077264;28;20036;-58
2023/04/04 01:52:35;;;;;;;3.45;0.80;;;-2.50;96.40;;;;;;5070114;28;20025;-59
2023/04/04 01:55:01;;;;;;;2.88;1.00;;;-2.50;96.60;;;;;;5065527;28;20024;-56
2023/04/04 01:57:27;;;;;;;3.28;1.20;;;-2.60;96.50;;;;;;5083197;28;20115;-60
2023/04/04 01:59:52;;;;;;;4.18;0.88;;;-2.60;96.90;;;;;;5066793;28;20033;-57
2023/04/04 02:02:18;;;;;;;1.92;0.90;;;-2.60;97.00;;;;;;5074429;28;20644;-59
2023/04/04 02:04:43;;;;;;;6.22;1.20;;;-2.70;96.90;;;;;;5067413;28;20032;-58
2023/04/04 02:07:09;;;;;;;3.92;1.10;;;-2.70;97.00;;;;;;5066870;28;20424;-57
2023/04/04 02:09:34;;;;;;;4.75;1.10;;;-2.80;96.90;;;;;;5075254;28;20122;-59
2023/04/04 02:12:00;;;;;;;2.05;1.00;;;-2.80;97.00;;;;;;5074747;28;20162;-57
2023/04/04 02:14:26;;;;;;;3.58;1.20;;;-2.80;97.10;;;;;;5065891;28;20020;-58
2023/04/04 02:16:51;;;;;;;2.65;1.40;;;-2.80;97.30;;;;;;5071250;28;20055;-59
2023/04/04 02:19:17;;;;;;;4.63;0.90;;;-2.80;97.70;;;;;;5065558;28;20060;-58
2023/04/04 02:21:43;;;;;;;4.95;1.20;;;-2.90;98.20;;;;;;5073447;28;20039;-60
2023/04/04 02:24:09;;;;;;;3.97;1.20;;;-2.90;99.10;;;;;;5065494;28;20047;-58
2023/04/04 02:26:35;;;;;;;2.60;1.02;;;-2.90;98.40;;;;;;5070225;28;20024;-57
2023/04/04 02:29:01;;;;;;;1.17;0.70;;;-2.90;98.50;;;;;;5073167;28;20055;-58
2023/04/04 02:31:27;;;;;;;2.58;1.25;;;-3.00;98.80;;;;;;5078510;28;20613;-59
2023/04/04 02:33:52;;;;;;;4.00;0.90;;;-3.00;98.90;;;;;;5077937;28;20125;-59
2023/04/04 02:36:18;;;;;;;2.42;1.13;;;-3.00;99.20;;;;;;5070564;28;20058;-59
2023/04/04 02:38:43;;;;;;;3.92;1.30;;;-3.00;99.10;;;;;;5076068;28;20473;-58
2023/04/04 02:41:09;;;;;;;6.35;1.27;;;-3.10;98.80;;;;;;5066528;28;20081;-58
2023/04/04 02:43:35;;;;;;;2.17;1.20;;;-3.10;98.80;;;;;;5074223;28;20491;-58
2023/04/04 02:46:00;;;;;;;2.38;1.10;;;-3.10;99.30;;;;;;5072605;28;20025;-59
2023/04/04 02:48:26;;;;;;;3.22;1.00;;;-3.10;99.40;;;;;;5076628;28;20051;-59
2023/04/04 02:50:51;;;;;;;3.58;0.80;;;-3.20;99.60;;;;;;5070059;28;20064;-59
2023/04/04 02:53:17;;;;;;;3.65;1.20;;;-3.20;99.30;;;;;;5074647;28;20043;-58
2023/04/04 02:55:42;;;;;;;3.33;0.95;;;-3.20;99.60;;;;;;5087239;28;20500;-59
2023/04/04 02:58:08;;;;;;;3.22;1.27;;;-3.20;99.80;;;;;;5067875;28;20033;-58
2023/04/04 03:00:33;;;;;;;4.47;1.20;;;-3.30;99.60;;;;;;5089352;28;20101;-58
2023/04/04 03:02:59;;;;;;;3.47;1.13;;;-3.30;99.60;;;;;;5069776;28;20079;-58
2023/04/04 03:05:25;;;;;;;2.35;0.98;;;-3.30;99.20;;;;;;5074961;28;20039;-58
2023/04/04 03:07:55;;;;;;;3.63;1.00;;;-3.30;99.60;;;;;;5071242;28;20107;-58
2023/04/04 03:10:22;;;;;;;2.72;0.88;;;-3.30;99.90;;;;;;5088916;28;20270;-58
2023/04/04 03:12:48;;;;;;;4.75;1.10;;;-3.40;99.90;;;;;;5091116;28;20024;-59
2023/04/04 03:15:14;;;;;;;4.70;1.17;;;-3.40;99.90;;;;;;5069704;28;20043;-59
2023/04/04 03:17:39;;;;;;;1.23;0.80;;;-3.40;99.90;;;;;;5090700;28;20028;-56
2023/04/04 03:20:05;;;;;;;2.58;1.10;;;-3.40;99.80;;;;;;5069681;28;20090;-59
2023/04/04 03:22:31;;;;;;;2.42;0.90;;;-3.40;99.90;;;;;;5090476;28;20036;-60
2023/04/04 03:24:57;;;;;;;1.98;1.08;;;-3.50;99.90;;;;;;5069435;28;20041;-59
2023/04/04 03:27:22;;;;;;;2.53;1.20;;;-3.50;99.90;;;;;;5090165;28;20077;-58
2023/04/04 03:29:48;;;;;;;2.70;1.10;;;-3.50;99.90;;;;;;5069562;28;20099;-58
2023/04/04 03:32:13;;;;;;;1.38;0.85;;;-3.60;99.90;;;;;;5089207;28;20035;-59
2023/04/04 03:34:39;;;;;;;4.95;1.38;;;-3.60;99.90;;;;;;5068991;28;20040;-57
2023/04/04 03:37:04;;;;;;;2.88;1.33;;;-3.60;99.90;;;;;;5090143;28;20036;-59
2023/04/04 03:39:30;;;;;;;2.95;1.35;;;-3.70;99.90;;;;;;5069366;28;20032;-59
2023/04/04 03:41:56;;;;;;;3.88;1.30;;;-3.70;99.90;;;;;;5089879;28;20404;-59
2023/04/04 03:44:22;;;;;;;5.13;1.85;;;-3.70;99.90;;;;;;5079398;28;20050;-59
2023/04/04 03:46:48;;;;;;;8.73;3.10;;;-3.70;99.90;;;;;;5070877;28;20024;-58
2023/04/04 03:49:13;;;;;;;11.27;4.13;;;-3.70;99.90;;;;;;5087900;28;20016;-58
2023/04/04 03:51:39;;;;;;;8.02;3.97;;;-3.80;99.90;;;;;;5070856;28;20155;-58
2023/04/04 03:54:04;;;;;;;8.57;2.90;;;-3.80;99.90;;;;;;5087633;28;20035;-58
2023/04/04 03:56:31;;;;;;;16.27;5.15;;;-3.80;99.90;;;;;;5070803;28;20036;-58
2023/04/04 03:58:57;;;;;;;21.65;6.82;;;-3.80;99.90;;;;;;5087906;28;20020;-59
2023/04/04 04:01:22;;;;;;;18.60;7.05;;;-3.90;99.90;;;;;;5090331;28;20030;-58
2023/04/04 04:03:48;;;;;;;19.45;7.88;;;-3.90;99.90;;;;;;5074866;28;20035;-57
2023/04/04 04:06:13;;;;;;;24.08;8.93;;;-3.90;99.90;;;;;;5072450;28;20036;-57
2023/04/04 04:08:39;;;;;;;13.60;6.50;;;-4.00;99.90;;;;;;5087346;28;20032;-58
2023/04/04 04:11:05;;;;;;;10.68;5.13;;;-4.00;99.90;;;;;;5090043;28;20424;-58
2023/04/04 04:13:31;;;;;;;13.15;5.45;;;-4.00;99.90;;;;;;5070613;28;20077;-56
2023/04/04 04:15:56;;;;;;;16.65;6.35;;;-4.00;99.90;;;;;;5090157;28;20028;-57
2023/04/04 04:18:22;;;;;;;15.93;6.97;;;-4.00;99.90;;;;;;5070406;28;20048;-57
2023/04/04 04:20:47;;;;;;;12.07;5.55;;;-4.00;99.90;;;;;;5088841;28;20016;-58
2023/04/04 04:23:13;;;;;;;11.05;5.20;;;-4.00;99.90;;;;;;5069509;28;20533;-54
2023/04/04 04:25:38;;;;;;;13.15;5.35;;;-4.10;99.90;;;;;;5089910;28;20048;-54
2023/04/04 04:28:04;;;;;;;11.73;5.30;;;-4.00;99.90;;;;;;5069923;28;20032;-51
2023/04/04 04:30:30;;;;;;;7.88;4.10;;;-4.00;99.90;;;;;;5088397;28;20080;-50
2023/04/04 04:32:56;;;;;;;8.93;3.60;;;-4.10;99.90;;;;;;5076226;28;20043;-53
2023/04/04 04:35:21;;;;;;;10.38;4.30;;;-4.10;99.90;;;;;;5087748;28;20488;-54
2023/04/04 04:37:46;;;;;;;10.98;3.88;;;-4.10;99.90;;;;;;5088081;28;20564;-54
2023/04/04 04:40:15;;;;;;;6.60;2.58;;;-4.10;99.90;;;;;;5068025;28;20040;-52
2023/04/04 04:42:45;;;;;;;10.80;2.80;;;-4.10;99.90;;;;;;5089009;28;20043;-50
2023/04/04 04:45:10;;;;;;;4.40;2.22;;;-4.10;99.90;;;;;;5067620;28;20035;-51
2023/04/04 04:47:36;;;;;;;7.13;2.67;;;-4.10;99.90;;;;;;5088704;28;20024;-51
2023/04/04 04:50:02;;;;;;;2.75;1.80;;;-4.10;99.90;;;;;;5067782;28;20202;-52
2023/04/04 04:52:30;;;;;;;5.18;1.88;;;-4.10;99.90;;;;;;5088665;28;20039;-49
2023/04/04 04:54:56;;;;;;;7.57;2.25;;;-4.00;99.90;;;;;;5067359;28;20052;-53
2023/04/04 04:57:21;;;;;;;7.43;2.05;;;-4.00;99.90;;;;;;5088445;28;20062;-51
2023/04/04 04:59:47;;;;;;;2.70;1.67;;;-4.00;99.90;;;;;;5067662;28;20036;-53
2023/04/04 05:02:14;;;;;;;5.03;1.90;;;-4.00;99.90;;;;;;5088533;28;20094;-49
2023/04/04 05:04:40;;;;;;;5.00;1.90;;;-3.90;99.90;;;;;;5067115;28;20044;-52
2023/04/04 05:07:07;;;;;;;4.60;1.55;;;-3.80;99.90;;;;;;5086711;28;20492;-54
2023/04/04 05:09:32;;;;;;;2.92;1.40;;;-3.70;99.90;;;;;;5067425;28;20031;-52
2023/04/04 05:11:58;;;;;;;5.10;2.20;;;-3.50;99.90;;;;;;5088358;28;20036;-51
2023/04/04 05:14:23;;;;;;;3.45;1.65;;;-3.10;99.90;;;;;;5078202;28;20043;-55
2023/04/04 05:16:49;;;;;;;5.00;2.35;;;-3.00;99.90;;;;;;5069507;28;20036;-53
2023/04/04 05:19:15;;;;;;;6.95;1.90;;;-2.80;99.90;;;;;;5085134;28;20020;-52
2023/04/04 05:21:40;;;;;;;4.07;2.15;;;-2.60;99.90;;;;;;5069353;28;20089;-54
2023/04/04 05:24:06;;;;;;;4.50;2.30;;;-2.40;99.90;;;;;;5084842;28;20190;-52
2023/04/04 05:26:32;;;;;;;2.58;1.63;;;-2.10;99.90;;;;;;5069378;28;20341;-54
2023/04/04 05:28:58;;;;;;;3.40;1.85;;;-1.60;99.90;;;;;;5086238;28;20036;-50
2023/04/04 05:31:24;;;;;;;4.03;2.00;;;-0.80;99.90;;;;;;5088836;28;20028;-52
2023/04/04 05:33:49;;;;;;;4.05;2.08;;;0.50;97.70;;;;;;5073304;28;20058;-53
2023/04/04 05:36:15;;;;;;;8.13;2.17;;;1.80;92.90;;;;;;5089054;28;20103;-54
2023/04/04 05:38:40;;;;;;;2.92;2.08;;;3.00;87.40;;;;;;5072162;28;20424;-53
2023/04/04 05:41:06;;;;;;;5.25;1.80;;;4.10;76.80;;;;;;5088858;28;20118;-55
2023/04/04 05:43:31;;;;;;;6.32;2.10;;;5.10;73.10;;;;;;5070948;28;20028;-56
2023/04/04 05:45:57;;;;;;;8.18;1.73;;;6.00;67.10;;;;;;5088841;28;20099;-56
2023/04/04 05:48:22;;;;;;;6.95;2.13;;;6.80;64.80;;;;;;5069444;28;20029;-56
2023/04/04 05:50:48;;;;;;;3.33;1.88;;;7.60;61.40;;;;;;5088772;28;20024;-56
2023/04/04 05:53:14;;;;;;;3.80;1.63;;;8.40;58.00;;;;;;5068422;28;20035;-56
2023/04/04 05:55:39;;;;;;;7.55;3.55;;;9.00;53.40;;;;;;5088595;28;20024;-57
2023/04/04 05:58:05;;;;;;;13.77;7.65;;;9.60;48.80;;;;;;5067547;28;20036;-52
2023/04/04 06:00:31;;;;;;;17.88;10.23;;;10.10;44.20;;;;;;5088588;28;20034;-54
2023/04/04 06:02:57;;;;;;;11.35;8.48;;;10.50;41.60;;;;;;5069043;28;20021;-56
2023/04/04 06:05:23;;;;;;;7.88;4.97;;;10.90;38.30;;;;;;5085694;28;20024;-55
2023/04/04 06:07:49;;;;;;;6.13;4.47;;;10.90;34.00;;;;;;5088465;28;20070;-56
2023/04/04 06:10:14;;;;;;;5.78;3.70;;;11.30;37.30;;;;;;5067238;28;20504;-55
2023/04/04 06:12:40;;;;;;;5.85;3.00;;;11.70;35.30;;;;;;5087579;28;20032;-56
2023/04/04 06:15:06;;;;;;;6.18;3.22;;;11.90;33.30;;;;;;5067217;28;20362;-55
2023/04/04 06:17:32;;;;;;;6.00;2.50;;;11.90;29.70;;;;;;5092023;28;20060;-57
2023/04/04 06:19:57;;;;;;;5.00;2.53;;;11.70;31.00;;;;;;5070789;28;20048;-55
2023/04/04 06:22:23;;;;;;;4.70;2.70;;;11.70;29.40;;;;;;5091441;28;20024;-56
2023/04/04 06:24:48;;;;;;;5.63;2.40;;;12.10;28.10;;;;;;5070689;28;20024;-55
2023/04/04 06:27:14;;;;;;;5.35;1.65;;;12.60;26.00;;;;;;5091570;28;20028;-57
2023/04/04 06:29:40;;;;;;;6.07;2.22;;;13.40;25.50;;;;;;5070578;28;20642;-57
2023/04/04 06:32:05;;;;;;;2.45;1.35;;;13.90;22.30;;;;;;5091521;28;20023;-56
2023/04/04 06:34:31;;;;;;;4.72;1.63;;;14.30;18.80;;;;;;5070303;28;20028;-56
2023/04/04 06:36:56;;;;;;;4.60;2.13;;;14.60;16.70;;;;;;5091382;28;20032;-57
2023/04/04 06:39:22;;;;;;;3.65;1.88;;;14.70;14.60;;;;;;5080860;28;20030;-57
2023/04/04 06:41:47;;;;;;;4.43;1.70;;;14.80;17.10;;;;;;5072276;28;20103;-57
2023/04/04 06:44:13;;;;;;;2.67;1.67;;;15.30;17.70;;;;;;5089230;28;20031;-55
2023/04/04 06:46:39;;;;;;;2.03;1.20;;;15.70;16.70;;;;;;5070745;28;20025;-57
2023/04/04 06:49:05;;;;;;;3.00;1.52;;;16.20;14.20;;;;;;5089053;28;20047;-57
2023/04/04 06:51:32;;;;;;;4.85;2.38;;;16.50;14.30;;;;;;5072042;28;20051;-57
2023/04/04 06:53:59;;;;;;;4.38;2.20;;;16.30;12.20;;;;;;5089318;28;20032;-57
2023/04/04 06:56:25;;;;;;;3.60;1.60;;;16.50;12.70;;;;;;5091762;28;20520;-57
2023/04/04 06:58:51;;;;;;;4.38;1.63;;;16.70;12.40;;;;;;5076474;28;20107;-57
2023/04/04 07:01:17;;;;;;;3.00;1.50;;;17.00;12.20;;;;;;5091742;28;20430;-58
2023/04/04 07:03:45;;;;;;;3.08;1.25;;;17.10;10.50;;;;;;5074982;28;20044;-57
2023/04/04 07:06:11;;;;;;;2.85;1.50;;;17.30;9.20;;;;;;5074915;28;20032;-57
2023/04/04 07:08:36;;;;;;;3.13;1.20;;;17.60;10.20;;;;;;5087436;28;20111;-57
2023/04/04 07:11:03;;;;;;;2.75;1.20;;;18.00;9.70;;;;;;5069013;28;20480;-52
2023/04/04 07:13:28;;;;;;;2.60;1.20;;;18.20;9.50;;;;;;5069270;28;20048;-53
2023/04/04 07:15:54;;;;;;;4.40;1.42;;;18.20;7.80;;;;;;5087621;28;20028;-54
2023/04/04 07:18:19;;;;;;;2.70;1.25;;;17.90;7.70;;;;;;5089809;28;20339;-52
2023/04/04 07:20:46;;;;;;;2.17;1.17;;;17.90;7.80;;;;;;5068311;28;20036;-50
2023/04/04 07:23:12;;;;;;;2.67;1.30;;;18.30;8.40;;;;;;5089546;28;20077;-53
2023/04/04 07:25:38;;;;;;;4.78;1.40;;;18.60;7.70;;;;;;5066939;28;20032;-52
2023/04/04 07:28:03;;;;;;;2.15;1.40;;;18.60;2.70;;;;;;5069576;28;20028;-52
2023/04/04 07:30:32;;;;;;;1.50;1.15;;;17.60;2.10;;;;;;5087534;28;20028;-54
2023/04/04 07:33:01;;;;;;;3.17;1.33;;;16.40;6.00;;;;;;5082399;28;20386;-53
2023/04/04 07:35:27;;;;;;;1.02;0.82;;;15.40;5.00;;;;;;5079401;28;20032;-55
2023/04/04 07:37:52;;;;;;;4.32;1.60;;;14.90;6.90;;;;;;5070222;28;20476;-53
2023/04/04 07:40:18;;;;;;;4.40;1.48;;;13.80;5.70;;;;;;5087150;28;20047;-50
2023/04/04 07:42:45;;;;;;;1.80;0.90;;;12.70;6.20;;;;;;5069982;28;20075;-51
2023/04/04 07:45:13;;;;;;;3.60;0.80;;;13.20;5.00;;;;;;5086980;28;20131;-51
2023/04/04 07:47:45;;;;;;;2.58;1.10;;;13.10;4.90;;;;;;5069694;28;20032;-50
2023/04/04 07:50:13;;;;;;;3.75;1.10;;;12.70;2.40;;;;;;5087224;28;20036;-50
2023/04/04 07:52:40;;;;;;;3.35;1.00;;;11.20;4.40;;;;;;5069575;28;20084;-48
2023/04/04 07:55:06;;;;;;;1.60;0.93;;;10.90;8.00;;;;;;5086910;28;20031;-49
2023/04/04 07:57:38;;;;;;;1.02;0.60;;;11.10;3.80;;;;;;5069456;28;20035;-47
2023/04/04 08:00:08;;;;;;;2.40;0.82;;;10.80;6.40;;;;;;5086754;28;20032;-53
2023/04/04 08:02:35;;;;;;;1.60;0.80;;;11.30;6.70;;;;;;5067128;28;20036;-52
2023/04/04 08:05:00;;;;;;;3.72;1.40;;;11.70;9.00;;;;;;5084650;28;20036;-52
2023/04/04 08:07:25;;;;;;;2.97;1.10;;;12.20;6.80;;;;;;5061834;28;20033;-49
2023/04/04 08:09:51;;;;;;;2.05;1.17;;;12.30;3.90;;;;;;5088415;28;20033;-54
2023/04/04 08:12:16;;;;;;;0.80;0.70;;;11.70;7.00;;;;;;5066809;28;20051;-51
2023/04/04 08:14:42;;;;;;;3.22;1.15;;;10.70;7.30;;;;;;5068452;28;20471;-51
2023/04/04 08:17:08;;;;;;;2.05;0.93;;;10.00;5.10;;;;;;5086450;28;20461;-48
2023/04/04 08:19:33;;;;;;;3.05;0.80;;;9.70;7.60;;;;;;5089034;28;20418;-48
2023/04/04 08:21:58;;;;;;;3.92;0.88;;;10.00;7.50;;;;;;5066873;28;20082;-52
2023/04/04 08:24:24;;;;;;;2.40;0.93;;;10.00;5.00;;;;;;5088179;28;20373;-49
2023/04/04 08:26:50;;;;;;;2.10;0.90;;;9.90;7.10;;;;;;5067435;28;20032;-47
2023/04/04 08:29:15;;;;;;;4.47;1.13;;;9.90;7.50;;;;;;5088049;28;20031;-50
2023/04/04 08:31:41;;;;;;;2.95;1.10;;;9.70;7.90;;;;;;5077825;28;20400;-50
2023/04/04 08:34:07;;;;;;;2.65;1.05;;;9.50;7.00;;;;;;5069517;28;20044;-48
2023/04/04 08:36:33;;;;;;;1.90;0.80;;;8.80;8.10;;;;;;5087094;28;20035;-49
2023/04/04 08:38:59;;;;;;;2.28;0.90;;;8.90;7.60;;;;;;5069170;28;20032;-49
2023/04/04 08:41:25;;;;;;;1.05;0.70;;;9.10;6.90;;;;;;5086930;28;20039;-48
2023/04/04 08:43:56;;;;;;;2.72;0.82;;;9.30;7.90;;;;;;5069872;28;20511;-50
2023/04/04 08:46:23;;;;;;;3.08;0.90;;;9.60;7.70;;;;;;5062666;28;20408;-48
2023/04/04 08:48:51;;;;;;;4.60;1.27;;;9.00;6.20;;;;;;5069711;28;20463;-50
2023/04/04 08:51:19;;;;;;;3.60;0.90;;;8.80;6.60;;;;;;5087111;28;20028;-53
2023/04/04 08:53:44;;;;;;;1.95;0.80;;;8.80;5.70;;;;;;5087414;28;20039;-48
2023/04/04 08:56:10;;;;;;;4.30;1.20;;;8.50;6.50;;;;;;5069684;28;20029;-52
2023/04/04 08:58:37;;;;;;;2.15;0.90;;;7.90;8.10;;;;;;5086692;28;20105;-49
2023/04/04 09:01:04;;;;;;;4.00;1.05;;;8.00;8.00;;;;;;5089305;28;20472;-51
2023/04/04 09:03:33;;;;;;;2.97;0.80;;;8.20;7.30;;;;;;5073920;28;20522;-52
2023/04/04 09:05:59;;;;;;;2.60;1.02;;;8.30;8.00;;;;;;5072079;28;20029;-52
2023/04/04 09:08:25;;;;;;;1.95;0.80;;;8.50;7.50;;;;;;5086388;28;20043;-51
2023/04/04 09:10:51;;;;;;;2.50;0.68;;;8.70;7.50;;;;;;5069518;28;20033;-50
2023/04/04 09:13:18;;;;;;;3.90;1.13;;;8.70;7.40;;;;;;5086776;28;20046;-50
2023/04/04 09:15:53;;;;;;;4.85;1.00;;;7.80;8.10;;;;;;5069415;28;20029;-48
2023/04/04 09:18:18;;;;;;;3.10;1.30;;;7.40;9.00;;;;;;5063727;28;20081;-51
2023/04/04 09:20:45;;;;;;;3.10;1.00;;;7.20;9.60;;;;;;5069483;28;20488;-48
2023/04/04 09:23:22;;;;;;;1.55;1.00;;;7.20;9.80;;;;;;5086451;28;20035;-53
2023/04/04 09:25:52;;;;;;;2.08;0.77;;;7.30;9.30;;;;;;5049007;28;20033;-49
2023/04/04 09:28:19;;;;;;;2.90;1.05;;;7.60;9.40;;;;;;5077976;28;20041;-50
2023/04/04 09:30:48;;;;;;;2.08;1.05;;;8.00;8.70;;;;;;5088582;28;20062;-50
2023/04/04 09:33:15;;;;;;;4.10;1.30;;;8.40;8.20;;;;;;5075929;28;20046;-51
2023/04/04 09:35:48;;;;;;;2.17;1.10;;;8.70;8.50;;;;;;5087604;28;20032;-48
2023/04/04 09:38:14;;;;;;;1.73;0.80;;;8.90;7.70;;;;;;5074429;28;20061;-50
2023/04/04 09:40:41;;;;;;;3.97;1.08;;;9.10;7.30;;;;;;5069180;28;20464;-50
2023/04/04 09:43:07;;;;;;;5.03;1.20;;;9.50;6.40;;;;;;5086397;28;20028;-50
2023/04/04 09:45:34;;;;;;;3.28;0.88;;;9.40;6.90;;;;;;5089011;28;20020;-48
2023/04/04 09:48:01;;;;;;;2.53;0.77;;;9.30;6.80;;;;;;5072915;28;20028;-50
2023/04/04 09:50:32;;;;;;;2.80;1.00;;;9.60;6.40;;;;;;5091669;28;20016;-50
2023/04/04 09:52:59;;;;;;;5.28;2.28;;;9.70;6.20;;;;;;5076544;28;20451;-51
2023/04/04 09:55:32;;;;;;;4.60;2.28;;;9.60;5.10;;;;;;5093349;28;20012;-48
2023/04/04 09:57:57;;;;;;;3.15;1.40;;;9.30;5.70;;;;;;5076486;28;20484;-50
2023/04/04 10:00:29;;;;;;;4.82;1.75;;;9.40;5.80;;;;;;5093150;28;20035;-48
2023/04/04 10:02:57;;;;;;;2.75;1.30;;;9.10;5.30;;;;;;5060845;28;20016;-50
2023/04/04 10:05:23;;;;;;;2.20;1.20;;;8.40;7.60;;;;;;5077837;28;20113;-51
2023/04/04 10:07:48;;;;;;;5.93;1.35;;;8.30;8.50;;;;;;5069944;28;20020;-48
2023/04/04 10:10:17;;;;;;;3.88;1.10;;;8.50;8.80;;;;;;5087765;28;20043;-50
2023/04/04 10:12:45;;;;;;;1.33;0.80;;;8.70;8.40;;;;;;5076593;28;20039;-48
2023/04/04 10:15:11;;;;;;;3.10;0.90;;;8.90;8.30;;;;;;5088180;28;20051;-48
2023/04/04 10:17:38;;;;;;;4.47;1.20;;;8.80;8.30;;;;;;5080345;28;20440;-46
2023/04/04 10:20:05;;;;;;;2.78;0.85;;;8.90;8.00;;;;;;5087932;28;20028;-48
2023/04/04 10:22:37;;;;;;;1.73;0.88;;;9.00;8.20;;;;;;5089878;28;20686;-46
2023/04/04 10:25:04;;;;;;;2.83;0.98;;;9.10;7.90;;;;;;5071846;28;20494;-48
2023/04/04 10:27:31;;;;;;;4.10;0.98;;;9.10;7.40;;;;;;5090140;28;20036;-55
2023/04/04 10:29:56;;;;;;;1.48;0.75;;;9.10;7.60;;;;;;5067750;28;20057;-55
2023/04/04 10:32:29;;;;;;;2.78;0.90;;;9.10;7.80;;;;;;5086855;28;20627;-56
2023/04/04 10:35:09;;;;;;;3.38;1.42;;;9.00;8.30;;;;;;5076474;28;20038;-56
2023/04/04 10:37:41;;;;;;;3.67;1.60;;;8.10;9.50;;;;;;5049556;28;20029;-56
2023/04/04 10:40:09;;;;;;;5.63;1.42;;;7.60;10.30;;;;;;5071883;28;21045;-56
2023/04/04 10:42:40;;;;;;;4.18;1.65;;;7.60;10.90;;;;;;5075161;28;20035;-54
2023/04/04 10:45:09;;;;;;;2.10;1.00;;;7.30;11.70;;;;;;5086417;28;20031;-55
2023/04/04 10:47:35;;;;;;;5.15;1.42;;;7.00;11.90;;;;;;5088792;28;20024;-55
2023/04/04 10:50:05;;;;;;;3.85;1.50;;;7.00;12.50;;;;;;5073262;28;20028;-55
2023/04/04 10:52:31;;;;;;;3.15;1.20;;;7.10;12.40;;;;;;5072101;28;20028;-53
2023/04/04 10:55:01;;;;;;;3.78;1.33;;;7.30;12.00;;;;;;5085045;28;20560;-54
2023/04/04 10:57:27;;;;;;;3.30;1.75;;;7.40;11.20;;;;;;5068490;28;20604;-56
2023/04/04 11:00:08;;;;;;;4.72;1.60;;;7.50;11.00;;;;;;5090660;28;20024;-53
2023/04/04 11:03:00;;;;;;;5.40;1.65;;;7.20;10.60;;;;;;5050761;28;20029;-56
2023/04/04 11:05:36;;;;;;;7.13;1.10;;;7.00;11.30;;;;;;5062522;28;20032;-56
2023/04/04 11:08:02;;;;;;;1.95;1.08;;;6.70;11.90;;;;;;5059064;28;20601;-56
2023/04/04 11:10:29;;;;;;;2.10;1.10;;;6.60;12.80;;;;;;5068210;28;20033;-56
2023/04/04 11:13:03;;;;;;;3.45;1.13;;;6.70;11.90;;;;;;5075458;28;20127;-52
2023/04/04 11:15:45;;;;;;;4.85;1.20;;;6.90;12.30;;;;;;5076637;28;20035;-57
2023/04/04 11:18:12;;;;;;;4.47;0.98;;;6.90;11.10;;;;;;5069282;28;20054;-55
2023/04/04 11:20:44;;;;;;;2.63;0.90;;;7.00;10.90;;;;;;5079026;28;20150;-52
2023/04/04 11:23:19;;;;;;;2.30;1.15;;;7.20;11.70;;;;;;5067546;28;20045;-52
2023/04/04 11:25:52;;;;;;;1.60;0.82;;;7.50;10.90;;;;;;5083738;28;20705;-56
2023/04/04 11:28:40;;;;;;;1.77;1.00;;;7.70;10.70;;;;;;5075390;28;20054;-56
2023/04/04 11:31:19;;;;;;;2.85;0.80;;;7.60;10.70;;;;;;5063304;28;20036;-57
2023/04/04 11:33:56;;;;;;;1.85;0.70;;;7.70;10.20;;;;;;5078831;28;20044;-57
2023/04/04 11:36:37;;;;;;;2.33;0.82;;;7.80;10.10;;;;;;5074034;28;20029;-57
2023/04/04 11:39:10;;;;;;;1.63;0.70;;;8.00;9.40;;;;;;5074166;28;20116;-56
2023/04/04 11:41:52;;;;;;;3.90;0.80;;;8.00;8.50;;;;;;5059080;28;20035;-56
2023/04/04 11:44:19;;;;;;;1.58;1.00;;;8.10;8.80;;;;;;5077001;28;20024;-56
2023/04/04 11:46:46;;;;;;;2.50;0.70;;;8.10;8.60;;;;;;5069150;28;20088;-56
2023/04/04 11:49:12;;;;;;;2.47;1.23;;;8.30;8.70;;;;;;5066425;28;20036;-57
2023/04/04 11:51:39;;;;;;;1.92;0.80;;;8.20;8.40;;;;;;5073250;28;20258;-56
2023/04/04 11:54:17;;;;;;;2.50;1.00;;;8.30;8.30;;;;;;5077653;28;20032;-56
2023/04/04 11:56:44;;;;;;;1.80;0.60;;;8.20;8.10;;;;;;5092518;28;20127;-55
2023/04/04 11:59:18;;;;;;;3.13;0.80;;;8.20;8.10;;;;;;5067522;28;20036;-57
2023/04/04 12:01:43;;;;;;;1.55;1.00;;;8.20;8.60;;;;;;5070711;28;20021;-56
2023/04/04 12:04:09;;;;;;;1.30;0.80;;;8.20;8.00;;;;;;5070632;28;20032;-57
2023/04/04 12:06:36;;;;;;;3.65;0.77;;;8.20;7.60;;;;;;5075421;28;20404;-56
2023/04/04 12:09:03;;;;;;;2.72;1.17;;;8.20;7.90;;;;;;5072464;28;20115;-53
2023/04/04 12:11:30;;;;;;;1.90;1.17;;;8.20;8.10;;;;;;5074180;28;20032;-54
2023/04/04 12:13:56;;;;;;;3.60;1.25;;;8.30;7.50;;;;;;5069349;28;20033;-54
2023/04/04 12:16:22;;;;;;;2.60;1.00;;;8.20;7.30;;;;;;5074780;28;20051;-56
2023/04/04 12:18:51;;;;;;;1.83;0.80;;;8.10;7.30;;;;;;5070287;28;20040;-56
2023/04/04 12:21:17;;;;;;;1.77;0.70;;;8.10;7.40;;;;;;5077502;28;20068;-53
2023/04/04 12:23:42;;;;;;;1.73;0.70;;;8.10;7.30;;;;;;5074709;28;20119;-55
2023/04/04 12:26:10;;;;;;;2.25;0.93;;;8.30;8.20;;;;;;5074797;28;20111;-56
2023/04/04 12:28:38;;;;;;;2.17;0.80;;;8.60;7.70;;;;;;5082391;28;20115;-56
2023/04/04 12:31:05;;;;;;;1.23;0.82;;;8.80;7.00;;;;;;5068898;28;20021;-54
2023/04/04 12:33:34;;;;;;;1.90;0.80;;;9.00;7.10;;;;;;5068731;28;20518;-54
2023/04/04 12:36:04;;;;;;;3.03;0.77;;;9.10;7.10;;;;;;5076008;28;20029;-55
2023/04/04 12:38:30;;;;;;;2.38;0.77;;;9.10;6.60;;;;;;5067896;28;20024;-55
2023/04/04 12:40:56;;;;;;;1.05;0.60;;;9.00;7.10;;;;;;5080383;28;20036;-56
2023/04/04 12:43:25;;;;;;;1.35;0.88;;;9.00;7.10;;;;;;5075827;28;20496;-55
2023/04/04 12:45:55;;;;;;;1.27;0.90;;;9.10;6.10;;;;;;5079137;28;20052;-56
2023/04/04 12:48:28;;;;;;;1.10;0.85;;;9.00;5.50;;;;;;5074252;28;20043;-56
2023/04/04 12:50:56;;;;;;;2.28;0.77;;;9.00;5.50;;;;;;5070234;28;20033;-56
2023/04/04 12:53:29;;;;;;;2.17;0.77;;;9.00;4.70;;;;;;5075548;28;20496;-55